sensor_id;sensor_type;location;lat;lon;timestamp;P1;P2;P0
24012;PMS7003;12220;50.194;18.948;2024-02-28T00:01:58;51;42;24
24012;PMS7003;12220;50.194;18.948;2024-02-28T00:04:00;49;41;27
24012;PMS7003;12220;50.194;18.948;2024-02-28T00:06:01;38;33;22
24012;PMS7003;12220;50.194;18.948;2024-02-28T00:08:13;46;39;24
24012;PMS7003;12220;50.194;18.948;2024-02-28T00:10:14;46;38;23
24012;PMS7003;12220;50.194;18.948;2024-02-28T00:12:15;49;38;23
24012;PMS7003;12220;50.194;18.948;2024-02-28T00:14:17;44;35;22
24012;PMS7003;12220;50.194;18.948;2024-02-28T00:16:29;43;35;23
24012;PMS7003;12220;50.194;18.948;2024-02-28T00:18:30;46;38;27
24012;PMS7003;12220;50.194;18.948;2024-02-28T00:20:32;45;37;22
24012;PMS7003;12220;50.194;18.948;2024-02-28T00:22:33;47;33;21
24012;PMS7003;12220;50.194;18.948;2024-02-28T00:24:44;47;38;25
24012;PMS7003;12220;50.194;18.948;2024-02-28T00:26:45;39;34;23
24012;PMS7003;12220;50.194;18.948;2024-02-28T00:28:47;46;38;27
24012;PMS7003;12220;50.194;18.948;2024-02-28T00:30:51;46;35;23
24012;PMS7003;12220;50.194;18.948;2024-02-28T00:32:59;52;41;23
24012;PMS7003;12220;50.194;18.948;2024-02-28T00:35:01;43;31;22
24012;PMS7003;12220;50.194;18.948;2024-02-28T00:37:03;48;37;24
24012;PMS7003;12220;50.194;18.948;2024-02-28T00:39:04;53;39;23
24012;PMS7003;12220;50.194;18.948;2024-02-28T00:41:14;48;39;23
24012;PMS7003;12220;50.194;18.948;2024-02-28T00:43:15;42;34;22
24012;PMS7003;12220;50.194;18.948;2024-02-28T00:45:17;41;34;22
24012;PMS7003;12220;50.194;18.948;2024-02-28T00:47:18;39;31;22
24012;PMS7003;12220;50.194;18.948;2024-02-28T00:49:19;42;34;22
24012;PMS7003;12220;50.194;18.948;2024-02-28T00:51:21;46;37;23
24012;PMS7003;12220;50.194;18.948;2024-02-28T00:53:22;38;34;23
24012;PMS7003;12220;50.194;18.948;2024-02-28T00:55:26;38;33;22
24012;PMS7003;12220;50.194;18.948;2024-02-28T00:57:27;42;36;23
24012;PMS7003;12220;50.194;18.948;2024-02-28T00:59:28;37;32;21
24012;PMS7003;12220;50.194;18.948;2024-02-28T01:01:30;32;28;21
24012;PMS7003;12220;50.194;18.948;2024-02-28T01:03:41;47;37;23
24012;PMS7003;12220;50.194;18.948;2024-02-28T01:05:42;39;34;22
24012;PMS7003;12220;50.194;18.948;2024-02-28T01:07:44;41;33;21
24012;PMS7003;12220;50.194;18.948;2024-02-28T01:09:45;37;31;21
24012;PMS7003;12220;50.194;18.948;2024-02-28T01:11:47;34;31;22
24012;PMS7003;12220;50.194;18.948;2024-02-28T01:13:48;35;28;20
24012;PMS7003;12220;50.194;18.948;2024-02-28T01:15:51;39;34;21
24012;PMS7003;12220;50.194;18.948;2024-02-28T01:17:54;37;33;23
24012;PMS7003;12220;50.194;18.948;2024-02-28T01:19:55;46;36;23
24012;PMS7003;12220;50.194;18.948;2024-02-28T01:21:57;42;36;23
24012;PMS7003;12220;50.194;18.948;2024-02-28T01:24:00;41;34;23
24012;PMS7003;12220;50.194;18.948;2024-02-28T01:26:08;41;34;21
24012;PMS7003;12220;50.194;18.948;2024-02-28T01:28:09;44;34;22
24012;PMS7003;12220;50.194;18.948;2024-02-28T01:30:11;45;34;23
24012;PMS7003;12220;50.194;18.948;2024-02-28T01:32:12;42;35;22
24012;PMS7003;12220;50.194;18.948;2024-02-28T01:34:23;37;30;22
24012;PMS7003;12220;50.194;18.948;2024-02-28T01:36:24;42;35;23
24012;PMS7003;12220;50.194;18.948;2024-02-28T01:38:27;44;36;23
24012;PMS7003;12220;50.194;18.948;2024-02-28T01:40:28;47;38;23
24012;PMS7003;12220;50.194;18.948;2024-02-28T01:42:38;41;33;22
24012;PMS7003;12220;50.194;18.948;2024-02-28T01:46:49;41;32;22
24012;PMS7003;12220;50.194;18.948;2024-02-28T01:48:50;34;29;23
24012;PMS7003;12220;50.194;18.948;2024-02-28T01:50:53;32;30;22
24012;PMS7003;12220;50.194;18.948;2024-02-28T01:52:55;42;35;22
24012;PMS7003;12220;50.194;18.948;2024-02-28T01:54:57;43;32;21
24012;PMS7003;12220;50.194;18.948;2024-02-28T01:56:59;46;37;24
24012;PMS7003;12220;50.194;18.948;2024-02-28T01:59:00;47;36;24
24012;PMS7003;12220;50.194;18.948;2024-02-28T02:01:03;42;36;24
24012;PMS7003;12220;50.194;18.948;2024-02-28T02:03:07;47;36;24
24012;PMS7003;12220;50.194;18.948;2024-02-28T02:05:11;45;37;23
24012;PMS7003;12220;50.194;18.948;2024-02-28T02:07:12;45;37;25
24012;PMS7003;12220;50.194;18.948;2024-02-28T02:09:14;42;35;24
24012;PMS7003;12220;50.194;18.948;2024-02-28T02:11:17;48;39;23
24012;PMS7003;12220;50.194;18.948;2024-02-28T02:13:26;41;34;23
24012;PMS7003;12220;50.194;18.948;2024-02-28T02:15:27;37;31;22
24012;PMS7003;12220;50.194;18.948;2024-02-28T02:17:31;41;36;23
24012;PMS7003;12220;50.194;18.948;2024-02-28T02:19:32;43;33;22
24012;PMS7003;12220;50.194;18.948;2024-02-28T02:21:43;44;37;24
24012;PMS7003;12220;50.194;18.948;2024-02-28T02:24:03;36;31;21
24012;PMS7003;12220;50.194;18.948;2024-02-28T02:26:04;46;33;23
24012;PMS7003;12220;50.194;18.948;2024-02-28T02:28:05;40;34;21
24012;PMS7003;12220;50.194;18.948;2024-02-28T02:30:07;41;36;24
24012;PMS7003;12220;50.194;18.948;2024-02-28T02:32:18;47;36;23
24012;PMS7003;12220;50.194;18.948;2024-02-28T02:34:19;45;37;23
24012;PMS7003;12220;50.194;18.948;2024-02-28T02:36:20;52;40;23
24012;PMS7003;12220;50.194;18.948;2024-02-28T02:38:21;49;39;23
24012;PMS7003;12220;50.194;18.948;2024-02-28T02:40:33;38;31;20
24012;PMS7003;12220;50.194;18.948;2024-02-28T02:42:34;46;39;25
24012;PMS7003;12220;50.194;18.948;2024-02-28T02:44:35;44;36;25
24012;PMS7003;12220;50.194;18.948;2024-02-28T02:46:37;49;41;26
24012;PMS7003;12220;50.194;18.948;2024-02-28T02:48:48;53;38;25
24012;PMS7003;12220;50.194;18.948;2024-02-28T02:50:49;37;34;23
24012;PMS7003;12220;50.194;18.948;2024-02-28T02:52:50;46;39;26
24012;PMS7003;12220;50.194;18.948;2024-02-28T02:54:52;49;40;26
24012;PMS7003;12220;50.194;18.948;2024-02-28T02:57:03;53;43;27
24012;PMS7003;12220;50.194;18.948;2024-02-28T02:59:04;50;41;26
24012;PMS7003;12220;50.194;18.948;2024-02-28T03:01:06;50;41;27
24012;PMS7003;12220;50.194;18.948;2024-02-28T03:03:07;54;42;27
24012;PMS7003;12220;50.194;18.948;2024-02-28T03:05:18;53;43;27
24012;PMS7003;12220;50.194;18.948;2024-02-28T03:07:19;57;47;29
24012;PMS7003;12220;50.194;18.948;2024-02-28T03:09:20;58;46;28
24012;PMS7003;12220;50.194;18.948;2024-02-28T03:11:22;53;43;28
24012;PMS7003;12220;50.194;18.948;2024-02-28T03:13:33;55;44;28
24012;PMS7003;12220;50.194;18.948;2024-02-28T03:15:34;62;46;30
24012;PMS7003;12220;50.194;18.948;2024-02-28T03:17:35;55;45;29
24012;PMS7003;12220;50.194;18.948;2024-02-28T03:19:37;58;45;28
24012;PMS7003;12220;50.194;18.948;2024-02-28T03:21:48;56;46;28
24012;PMS7003;12220;50.194;18.948;2024-02-28T03:23:49;58;47;29
24012;PMS7003;12220;50.194;18.948;2024-02-28T03:25:51;59;45;29
24012;PMS7003;12220;50.194;18.948;2024-02-28T03:27:52;59;47;32
24012;PMS7003;12220;50.194;18.948;2024-02-28T03:30:03;65;45;30
24012;PMS7003;12220;50.194;18.948;2024-02-28T03:32:05;57;47;31
24012;PMS7003;12220;50.194;18.948;2024-02-28T03:34:07;58;47;28
24012;PMS7003;12220;50.194;18.948;2024-02-28T03:36:08;60;46;29
24012;PMS7003;12220;50.194;18.948;2024-02-28T03:38:18;60;48;32
24012;PMS7003;12220;50.194;18.948;2024-02-28T03:40:19;63;49;32
24012;PMS7003;12220;50.194;18.948;2024-02-28T03:42:21;60;47;31
24012;PMS7003;12220;50.194;18.948;2024-02-28T03:44:22;58;46;30
24012;PMS7003;12220;50.194;18.948;2024-02-28T03:46:33;54;41;30
24012;PMS7003;12220;50.194;18.948;2024-02-28T03:48:35;59;47;29
24012;PMS7003;12220;50.194;18.948;2024-02-28T03:50:36;63;48;30
24012;PMS7003;12220;50.194;18.948;2024-02-28T03:52:38;61;48;30
24012;PMS7003;12220;50.194;18.948;2024-02-28T03:54:48;55;43;28
24012;PMS7003;12220;50.194;18.948;2024-02-28T03:56:49;64;48;30
24012;PMS7003;12220;50.194;18.948;2024-02-28T03:58:51;57;43;26
24012;PMS7003;12220;50.194;18.948;2024-02-28T04:00:53;53;43;25
24012;PMS7003;12220;50.194;18.948;2024-02-28T04:03:05;62;48;31
24012;PMS7003;12220;50.194;18.948;2024-02-28T04:05:07;62;49;30
24012;PMS7003;12220;50.194;18.948;2024-02-28T04:07:09;58;46;30
24012;PMS7003;12220;50.194;18.948;2024-02-28T04:09:10;56;43;28
24012;PMS7003;12220;50.194;18.948;2024-02-28T04:11:18;60;46;28
24012;PMS7003;12220;50.194;18.948;2024-02-28T04:13:20;61;46;29
24012;PMS7003;12220;50.194;18.948;2024-02-28T04:15:22;62;48;29
24012;PMS7003;12220;50.194;18.948;2024-02-28T04:17:26;53;41;26
24012;PMS7003;12220;50.194;18.948;2024-02-28T04:19:33;61;44;28
24012;PMS7003;12220;50.194;18.948;2024-02-28T04:21:39;59;46;28
24012;PMS7003;12220;50.194;18.948;2024-02-28T04:23:40;53;43;29
24012;PMS7003;12220;50.194;18.948;2024-02-28T04:25:44;55;45;29
24012;PMS7003;12220;50.194;18.948;2024-02-28T04:27:48;59;45;31
24012;PMS7003;12220;50.194;18.948;2024-02-28T04:29:50;69;49;30
24012;PMS7003;12220;50.194;18.948;2024-02-28T04:31:51;59;46;31
24012;PMS7003;12220;50.194;18.948;2024-02-28T04:33:53;61;47;31
24012;PMS7003;12220;50.194;18.948;2024-02-28T04:36:04;64;47;31
24012;PMS7003;12220;50.194;18.948;2024-02-28T04:38:05;58;46;30
24012;PMS7003;12220;50.194;18.948;2024-02-28T04:40:10;62;49;32
24012;PMS7003;12220;50.194;18.948;2024-02-28T04:42:12;55;44;29
24012;PMS7003;12220;50.194;18.948;2024-02-28T04:44:19;58;47;30
24012;PMS7003;12220;50.194;18.948;2024-02-28T04:46:20;63;48;30
24012;PMS7003;12220;50.194;18.948;2024-02-28T04:48:21;62;48;30
24012;PMS7003;12220;50.194;18.948;2024-02-28T04:50:22;61;48;31
24012;PMS7003;12220;50.194;18.948;2024-02-28T04:52:34;62;46;30
24012;PMS7003;12220;50.194;18.948;2024-02-28T04:54:35;57;44;28
24012;PMS7003;12220;50.194;18.948;2024-02-28T04:56:42;49;40;25
24012;PMS7003;12220;50.194;18.948;2024-02-28T04:58:44;54;44;29
24012;PMS7003;12220;50.194;18.948;2024-02-28T05:00:49;52;41;27
24012;PMS7003;12220;50.194;18.948;2024-02-28T05:02:51;54;44;28
24012;PMS7003;12220;50.194;18.948;2024-02-28T05:04:52;55;45;30
24012;PMS7003;12220;50.194;18.948;2024-02-28T05:06:54;57;44;28
24012;PMS7003;12220;50.194;18.948;2024-02-28T05:09:04;56;45;28
24012;PMS7003;12220;50.194;18.948;2024-02-28T05:11:05;56;45;28
24012;PMS7003;12220;50.194;18.948;2024-02-28T05:13:06;56;45;28
24012;PMS7003;12220;50.194;18.948;2024-02-28T05:15:08;49;41;27
24012;PMS7003;12220;50.194;18.948;2024-02-28T05:17:19;58;46;30
24012;PMS7003;12220;50.194;18.948;2024-02-28T05:19:20;55;44;27
24012;PMS7003;12220;50.194;18.948;2024-02-28T05:21:22;60;46;30
24012;PMS7003;12220;50.194;18.948;2024-02-28T05:23:23;50;41;26
24012;PMS7003;12220;50.194;18.948;2024-02-28T05:25:34;56;44;27
24012;PMS7003;12220;50.194;18.948;2024-02-28T05:27:35;53;39;26
24012;PMS7003;12220;50.194;18.948;2024-02-28T05:29:36;53;43;27
24012;PMS7003;12220;50.194;18.948;2024-02-28T05:31:38;51;41;28
24012;PMS7003;12220;50.194;18.948;2024-02-28T05:35:57;54;44;29
24012;PMS7003;12220;50.194;18.948;2024-02-28T05:38:00;51;40;27
24012;PMS7003;12220;50.194;18.948;2024-02-28T05:40:01;46;39;27
24012;PMS7003;12220;50.194;18.948;2024-02-28T05:42:05;56;46;30
24012;PMS7003;12220;50.194;18.948;2024-02-28T05:44:06;57;45;29
24012;PMS7003;12220;50.194;18.948;2024-02-28T05:46:07;56;44;26
24012;PMS7003;12220;50.194;18.948;2024-02-28T05:48:08;52;37;24
24012;PMS7003;12220;50.194;18.948;2024-02-28T05:50:20;51;40;26
24012;PMS7003;12220;50.194;18.948;2024-02-28T05:52:21;50;41;25
24012;PMS7003;12220;50.194;18.948;2024-02-28T05:54:22;53;41;26
24012;PMS7003;12220;50.194;18.948;2024-02-28T05:56:24;53;42;26
24012;PMS7003;12220;50.194;18.948;2024-02-28T05:58:35;47;39;25
24012;PMS7003;12220;50.194;18.948;2024-02-28T06:00:36;48;41;27
24012;PMS7003;12220;50.194;18.948;2024-02-28T06:02:38;50;41;26
24012;PMS7003;12220;50.194;18.948;2024-02-28T06:04:39;51;42;26
24012;PMS7003;12220;50.194;18.948;2024-02-28T06:06:50;46;39;27
24012;PMS7003;12220;50.194;18.948;2024-02-28T06:08:51;60;45;28
24012;PMS7003;12220;50.194;18.948;2024-02-28T06:10:52;56;43;28
24012;PMS7003;12220;50.194;18.948;2024-02-28T06:12:55;52;42;27
24012;PMS7003;12220;50.194;18.948;2024-02-28T06:15:05;51;40;27
24012;PMS7003;12220;50.194;18.948;2024-02-28T06:17:07;58;45;28
24012;PMS7003;12220;50.194;18.948;2024-02-28T06:19:08;46;40;27
24012;PMS7003;12220;50.194;18.948;2024-02-28T06:21:09;53;41;27
24012;PMS7003;12220;50.194;18.948;2024-02-28T06:23:20;52;43;29
24012;PMS7003;12220;50.194;18.948;2024-02-28T06:25:22;55;39;25
24012;PMS7003;12220;50.194;18.948;2024-02-28T06:27:25;51;39;26
24012;PMS7003;12220;50.194;18.948;2024-02-28T06:29:27;51;40;27
24012;PMS7003;12220;50.194;18.948;2024-02-28T06:31:35;44;34;24
24012;PMS7003;12220;50.194;18.948;2024-02-28T06:33:36;57;43;27
24012;PMS7003;12220;50.194;18.948;2024-02-28T06:35:40;52;39;24
24012;PMS7003;12220;50.194;18.948;2024-02-28T06:37:42;53;42;25
24012;PMS7003;12220;50.194;18.948;2024-02-28T06:39:50;52;40;25
24012;PMS7003;12220;50.194;18.948;2024-02-28T06:41:51;41;36;25
24012;PMS7003;12220;50.194;18.948;2024-02-28T06:43:52;47;38;25
24012;PMS7003;12220;50.194;18.948;2024-02-28T06:45:54;54;40;26
24012;PMS7003;12220;50.194;18.948;2024-02-28T06:48:06;51;41;24
24012;PMS7003;12220;50.194;18.948;2024-02-28T06:50:08;31;25;9
24012;PMS7003;12220;50.194;18.948;2024-02-28T06:52:13;55;44;29
24012;PMS7003;12220;50.194;18.948;2024-02-28T06:54:14;46;38;26
24012;PMS7003;12220;50.194;18.948;2024-02-28T06:56:20;50;42;27
24012;PMS7003;12220;50.194;18.948;2024-02-28T06:58:21;48;40;25
24012;PMS7003;12220;50.194;18.948;2024-02-28T07:00:25;46;34;22
24012;PMS7003;12220;50.194;18.948;2024-02-28T07:02:26;51;40;27
24012;PMS7003;12220;50.194;18.948;2024-02-28T07:04:35;51;40;27
24012;PMS7003;12220;50.194;18.948;2024-02-28T07:06:37;49;39;25
24012;PMS7003;12220;50.194;18.948;2024-02-28T07:08:39;45;38;25
24012;PMS7003;12220;50.194;18.948;2024-02-28T07:10:40;47;40;25
24012;PMS7003;12220;50.194;18.948;2024-02-28T07:12:50;51;39;26
24012;PMS7003;12220;50.194;18.948;2024-02-28T07:14:51;43;38;25
24012;PMS7003;12220;50.194;18.948;2024-02-28T07:16:53;50;40;25
24012;PMS7003;12220;50.194;18.948;2024-02-28T07:18:55;46;39;26
24012;PMS7003;12220;50.194;18.948;2024-02-28T07:21:07;55;43;27
24012;PMS7003;12220;50.194;18.948;2024-02-28T07:23:08;53;42;27
24012;PMS7003;12220;50.194;18.948;2024-02-28T07:25:09;53;42;26
24012;PMS7003;12220;50.194;18.948;2024-02-28T07:27:11;51;38;24
24012;PMS7003;12220;50.194;18.948;2024-02-28T07:29:22;54;41;28
24012;PMS7003;12220;50.194;18.948;2024-02-28T07:31:23;51;43;27
24012;PMS7003;12220;50.194;18.948;2024-02-28T07:33:24;45;37;25
24012;PMS7003;12220;50.194;18.948;2024-02-28T07:35:25;56;40;26
24012;PMS7003;12220;50.194;18.948;2024-02-28T07:37:37;49;40;27
24012;PMS7003;12220;50.194;18.948;2024-02-28T07:39:38;57;44;27
24012;PMS7003;12220;50.194;18.948;2024-02-28T07:41:40;56;44;25
24012;PMS7003;12220;50.194;18.948;2024-02-28T07:43:44;62;46;30
24012;PMS7003;12220;50.194;18.948;2024-02-28T07:45:52;60;47;30
24012;PMS7003;12220;50.194;18.948;2024-02-28T07:47:53;69;57;33
24012;PMS7003;12220;50.194;18.948;2024-02-28T07:49:54;70;58;33
24012;PMS7003;12220;50.194;18.948;2024-02-28T07:51:56;68;53;33
24012;PMS7003;12220;50.194;18.948;2024-02-28T07:54:07;74;58;33
24012;PMS7003;12220;50.194;18.948;2024-02-28T07:56:15;72;54;33
24012;PMS7003;12220;50.194;18.948;2024-02-28T07:58:18;72;56;33
24012;PMS7003;12220;50.194;18.948;2024-02-28T08:00:20;70;55;35
24012;PMS7003;12220;50.194;18.948;2024-02-28T08:02:23;72;53;33
24012;PMS7003;12220;50.194;18.948;2024-02-28T08:04:25;60;48;31
24012;PMS7003;12220;50.194;18.948;2024-02-28T08:06:27;63;49;29
24012;PMS7003;12220;50.194;18.948;2024-02-28T08:08:28;58;45;29
24012;PMS7003;12220;50.194;18.948;2024-02-28T08:10:38;66;50;30
24012;PMS7003;12220;50.194;18.948;2024-02-28T08:12:39;64;50;33
24012;PMS7003;12220;50.194;18.948;2024-02-28T08:14:41;69;53;31
24012;PMS7003;12220;50.194;18.948;2024-02-28T08:16:42;61;48;29
24012;PMS7003;12220;50.194;18.948;2024-02-28T08:18:53;54;43;28
24012;PMS7003;12220;50.194;18.948;2024-02-28T08:20:55;61;46;30
24012;PMS7003;12220;50.194;18.948;2024-02-28T08:22:59;61;49;32
24012;PMS7003;12220;50.194;18.948;2024-02-28T08:25:00;60;48;28
24012;PMS7003;12220;50.194;18.948;2024-02-28T08:27:08;60;46;29
24012;PMS7003;12220;50.194;18.948;2024-02-28T08:29:10;55;45;27
24012;PMS7003;12220;50.194;18.948;2024-02-28T08:31:11;65;52;31
24012;PMS7003;12220;50.194;18.948;2024-02-28T08:33:12;70;52;32
24012;PMS7003;12220;50.194;18.948;2024-02-28T08:35:23;58;47;29
24012;PMS7003;12220;50.194;18.948;2024-02-28T08:37:25;62;49;31
24012;PMS7003;12220;50.194;18.948;2024-02-28T08:39:29;62;50;29
24012;PMS7003;12220;50.194;18.948;2024-02-28T08:41:33;60;46;29
24012;PMS7003;12220;50.194;18.948;2024-02-28T08:43:39;67;50;31
24012;PMS7003;12220;50.194;18.948;2024-02-28T08:45:41;60;47;29
24012;PMS7003;12220;50.194;18.948;2024-02-28T08:47:42;58;46;29
24012;PMS7003;12220;50.194;18.948;2024-02-28T08:49:45;67;49;30
24012;PMS7003;12220;50.194;18.948;2024-02-28T08:51:54;67;52;30
24012;PMS7003;12220;50.194;18.948;2024-02-28T08:53:56;67;51;30
24012;PMS7003;12220;50.194;18.948;2024-02-28T08:56:00;62;48;30
24012;PMS7003;12220;50.194;18.948;2024-02-28T08:58:02;66;49;28
24012;PMS7003;12220;50.194;18.948;2024-02-28T09:00:09;62;48;31
24012;PMS7003;12220;50.194;18.948;2024-02-28T09:02:11;67;49;31
24012;PMS7003;12220;50.194;18.948;2024-02-28T09:04:12;61;47;30
24012;PMS7003;12220;50.194;18.948;2024-02-28T09:06:14;65;51;31
24012;PMS7003;12220;50.194;18.948;2024-02-28T09:08:24;65;49;30
24012;PMS7003;12220;50.194;18.948;2024-02-28T09:10:25;63;47;28
24012;PMS7003;12220;50.194;18.948;2024-02-28T09:12:26;68;51;32
24012;PMS7003;12220;50.194;18.948;2024-02-28T09:14:27;63;48;30
24012;PMS7003;12220;50.194;18.948;2024-02-28T09:16:39;71;52;32
24012;PMS7003;12220;50.194;18.948;2024-02-28T09:18:40;66;52;32
24012;PMS7003;12220;50.194;18.948;2024-02-28T09:20:42;62;50;31
24012;PMS7003;12220;50.194;18.948;2024-02-28T09:22:44;64;49;30
24012;PMS7003;12220;50.194;18.948;2024-02-28T09:24:54;65;50;30
24012;PMS7003;12220;50.194;18.948;2024-02-28T09:26:55;52;44;30
24012;PMS7003;12220;50.194;18.948;2024-02-28T09:28:56;71;51;33
24012;PMS7003;12220;50.194;18.948;2024-02-28T09:30:57;65;49;30
24012;PMS7003;12220;50.194;18.948;2024-02-28T09:33:09;58;43;29
24012;PMS7003;12220;50.194;18.948;2024-02-28T09:35:10;61;47;27
24012;PMS7003;12220;50.194;18.948;2024-02-28T09:37:11;64;50;31
24012;PMS7003;12220;50.194;18.948;2024-02-28T09:39:13;70;52;32
24012;PMS7003;12220;50.194;18.948;2024-02-28T09:41:24;61;48;30
24012;PMS7003;12220;50.194;18.948;2024-02-28T09:43:29;72;52;32
24012;PMS7003;12220;50.194;18.948;2024-02-28T09:45:32;61;50;32
24012;PMS7003;12220;50.194;18.948;2024-02-28T09:47:35;67;51;31
24012;PMS7003;12220;50.194;18.948;2024-02-28T09:49:39;65;50;30
24012;PMS7003;12220;50.194;18.948;2024-02-28T09:51:43;67;50;30
24012;PMS7003;12220;50.194;18.948;2024-02-28T09:53:51;70;52;32
24012;PMS7003;12220;50.194;18.948;2024-02-28T09:55:54;75;58;34
24012;PMS7003;12220;50.194;18.948;2024-02-28T09:57:56;68;54;33
24012;PMS7003;12220;50.194;18.948;2024-02-28T09:59:59;72;56;33
24012;PMS7003;12220;50.194;18.948;2024-02-28T10:02:01;63;51;31
24012;PMS7003;12220;50.194;18.948;2024-02-28T10:04:03;69;55;33
24012;PMS7003;12220;50.194;18.948;2024-02-28T10:06:11;72;58;32
24012;PMS7003;12220;50.194;18.948;2024-02-28T10:08:16;69;55;33
24012;PMS7003;12220;50.194;18.948;2024-02-28T10:10:17;65;50;30
24012;PMS7003;12220;50.194;18.948;2024-02-28T10:12:19;65;49;30
24012;PMS7003;12220;50.194;18.948;2024-02-28T10:14:26;64;48;30
24012;PMS7003;12220;50.194;18.948;2024-02-28T10:16:27;63;50;31
24012;PMS7003;12220;50.194;18.948;2024-02-28T10:18:30;70;54;32
24012;PMS7003;12220;50.194;18.948;2024-02-28T10:20:31;81;64;34
24012;PMS7003;12220;50.194;18.948;2024-02-28T10:22:41;85;67;37
24012;PMS7003;12220;50.194;18.948;2024-02-28T10:24:43;83;69;36
24012;PMS7003;12220;50.194;18.948;2024-02-28T10:26:44;71;54;35
24012;PMS7003;12220;50.194;18.948;2024-02-28T10:28:57;74;59;34
24012;PMS7003;12220;50.194;18.948;2024-02-28T10:30:58;69;56;33
24012;PMS7003;12220;50.194;18.948;2024-02-28T10:33:00;67;54;32
24012;PMS7003;12220;50.194;18.948;2024-02-28T10:35:01;73;58;32
24012;PMS7003;12220;50.194;18.948;2024-02-28T10:37:03;77;61;33
24012;PMS7003;12220;50.194;18.948;2024-02-28T10:39:12;73;57;32
24012;PMS7003;12220;50.194;18.948;2024-02-28T10:41:14;75;62;33
24012;PMS7003;12220;50.194;18.948;2024-02-28T10:43:16;75;58;32
24012;PMS7003;12220;50.194;18.948;2024-02-28T10:45:21;72;52;31
24012;PMS7003;12220;50.194;18.948;2024-02-28T10:47:27;70;50;31
24012;PMS7003;12220;50.194;18.948;2024-02-28T10:49:29;67;51;31
24012;PMS7003;12220;50.194;18.948;2024-02-28T10:51:31;73;55;33
24012;PMS7003;12220;50.194;18.948;2024-02-28T10:53:37;69;53;30
24012;PMS7003;12220;50.194;18.948;2024-02-28T10:55:43;66;53;31
24012;PMS7003;12220;50.194;18.948;2024-02-28T10:57:51;77;57;32
24012;PMS7003;12220;50.194;18.948;2024-02-28T11:00:00;70;53;34
24012;PMS7003;12220;50.194;18.948;2024-02-28T11:02:05;74;59;33
24012;PMS7003;12220;50.194;18.948;2024-02-28T11:04:07;75;60;33
24012;PMS7003;12220;50.194;18.948;2024-02-28T11:08:26;77;65;34
24012;PMS7003;12220;50.194;18.948;2024-02-28T11:10:31;74;59;33
24012;PMS7003;12220;50.194;18.948;2024-02-28T11:12:36;73;55;33
24012;PMS7003;12220;50.194;18.948;2024-02-28T11:14:38;75;58;32
24012;PMS7003;12220;50.194;18.948;2024-02-28T11:16:39;76;59;33
24012;PMS7003;12220;50.194;18.948;2024-02-28T11:18:49;77;58;33
24012;PMS7003;12220;50.194;18.948;2024-02-28T11:20:50;78;62;33
24012;PMS7003;12220;50.194;18.948;2024-02-28T11:22:56;68;53;31
24012;PMS7003;12220;50.194;18.948;2024-02-28T11:24:58;71;56;32
24012;PMS7003;12220;50.194;18.948;2024-02-28T11:27:00;68;50;29
24012;PMS7003;12220;50.194;18.948;2024-02-28T11:29:04;62;47;29
24012;PMS7003;12220;50.194;18.948;2024-02-28T11:31:08;62;47;29
24012;PMS7003;12220;50.194;18.948;2024-02-28T11:33:09;71;53;32
24012;PMS7003;12220;50.194;18.948;2024-02-28T11:35:11;72;58;33
24012;PMS7003;12220;50.194;18.948;2024-02-28T11:37:18;74;56;31
24012;PMS7003;12220;50.194;18.948;2024-02-28T11:39:19;81;70;34
24012;PMS7003;12220;50.194;18.948;2024-02-28T11:41:25;77;65;34
24012;PMS7003;12220;50.194;18.948;2024-02-28T11:43:32;79;67;37
24012;PMS7003;12220;50.194;18.948;2024-02-28T11:45:40;78;64;33
24012;PMS7003;12220;50.194;18.948;2024-02-28T11:47:44;75;57;32
24012;PMS7003;12220;50.194;18.948;2024-02-28T11:49:46;77;59;32
24012;PMS7003;12220;50.194;18.948;2024-02-28T11:51:47;73;55;30
24012;PMS7003;12220;50.194;18.948;2024-02-28T11:53:51;74;56;30
24012;PMS7003;12220;50.194;18.948;2024-02-28T11:55:53;70;51;30
24012;PMS7003;12220;50.194;18.948;2024-02-28T11:57:56;71;52;30
24012;PMS7003;12220;50.194;18.948;2024-02-28T11:59:57;68;48;28
24012;PMS7003;12220;50.194;18.948;2024-02-28T12:04:14;82;64;33
24012;PMS7003;12220;50.194;18.948;2024-02-28T12:06:15;77;63;34
24012;PMS7003;12220;50.194;18.948;2024-02-28T12:08:17;74;59;32
24012;PMS7003;12220;50.194;18.948;2024-02-28T12:10:22;77;54;32
24012;PMS7003;12220;50.194;18.948;2024-02-28T12:12:23;76;58;32
24012;PMS7003;12220;50.194;18.948;2024-02-28T12:14:25;72;58;32
24012;PMS7003;12220;50.194;18.948;2024-02-28T12:16:27;82;63;35
24012;PMS7003;12220;50.194;18.948;2024-02-28T12:18:36;81;68;35
24012;PMS7003;12220;50.194;18.948;2024-02-28T12:20:37;72;52;32
24012;PMS7003;12220;50.194;18.948;2024-02-28T12:22:39;81;59;33
24012;PMS7003;12220;50.194;18.948;2024-02-28T12:24:40;74;60;34
24012;PMS7003;12220;50.194;18.948;2024-02-28T12:26:51;78;58;31
24012;PMS7003;12220;50.194;18.948;2024-02-28T12:28:53;74;58;34
24012;PMS7003;12220;50.194;18.948;2024-02-28T12:30:54;70;55;32
24012;PMS7003;12220;50.194;18.948;2024-02-28T12:32:55;74;57;31
24012;PMS7003;12220;50.194;18.948;2024-02-28T12:35:07;73;53;30
24012;PMS7003;12220;50.194;18.948;2024-02-28T12:37:11;67;51;31
24012;PMS7003;12220;50.194;18.948;2024-02-28T12:39:12;72;53;29
24012;PMS7003;12220;50.194;18.948;2024-02-28T12:41:14;73;60;31
24012;PMS7003;12220;50.194;18.948;2024-02-28T12:43:21;72;53;29
24012;PMS7003;12220;50.194;18.948;2024-02-28T12:45:23;64;48;28
24012;PMS7003;12220;50.194;18.948;2024-02-28T12:47:24;64;49;28
24012;PMS7003;12220;50.194;18.948;2024-02-28T12:49:25;76;57;32
24012;PMS7003;12220;50.194;18.948;2024-02-28T12:51:38;65;52;29
24012;PMS7003;12220;50.194;18.948;2024-02-28T12:53:44;70;51;29
24012;PMS7003;12220;50.194;18.948;2024-02-28T12:55:47;80;58;33
24012;PMS7003;12220;50.194;18.948;2024-02-28T12:57:48;69;50;30
24012;PMS7003;12220;50.194;18.948;2024-02-28T12:59:52;76;60;34
24012;PMS7003;12220;50.194;18.948;2024-02-28T13:01:53;74;57;33
24012;PMS7003;12220;50.194;18.948;2024-02-28T13:03:55;71;53;32
24012;PMS7003;12220;50.194;18.948;2024-02-28T13:05:57;69;50;29
24012;PMS7003;12220;50.194;18.948;2024-02-28T13:08:07;65;48;29
24012;PMS7003;12220;50.194;18.948;2024-02-28T13:10:09;68;50;28
24012;PMS7003;12220;50.194;18.948;2024-02-28T13:12:10;67;52;29